West Buechel, Kentucky
Current Conditions -  °F | °C
As of 10:53 AM on Saturday 25 Oct 2014 (Local Time) from KLOU Reporting Station
Overcast Overcast  
Wind Chill: 59°   Ceiling: 2600
Heat Index: 59°   Visibility: 9mi
Dew Point: 52°   Wind: 3mph
Humidity: 78%   Direction: 210°SSW
Pressure: 30.04"   Gusts: NA
Location:  38.1869°N, 85.6523°W
Report Text: KLOU 251453Z 21003KT 9SM OVC026 15/11 A3004 RMK AO2 SLP171 T01500111 53005
Loading
Personal Weather Stations






























Interactive Weather Map
Tropical Storm Tracking
New forecast layout! Learn more

10-Day Weather Forecast

Advertisements
Track Severe Weather on mobile